sensor_id;sensor_type;location;lat;lon;timestamp;temperature;humidity
5806;DHT22;2929;50.810;8.342;2023-04-06T00:00:45;-0.70;99.90
5806;DHT22;2929;50.810;8.342;2023-04-06T00:03:12;-0.80;99.90
5806;DHT22;2929;50.810;8.342;2023-04-06T00:05:39;-0.70;99.90
5806;DHT22;2929;50.810;8.342;2023-04-06T00:08:08;-0.80;99.90
5806;DHT22;2929;50.810;8.342;2023-04-06T00:10:34;-0.80;99.90
5806;DHT22;2929;50.810;8.342;2023-04-06T00:13:02;-0.90;99.90
5806;DHT22;2929;50.810;8.342;2023-04-06T00:15:29;-0.90;99.90
5806;DHT22;2929;50.810;8.342;2023-04-06T00:17:56;-0.90;99.90
5806;DHT22;2929;50.810;8.342;2023-04-06T00:20:26;-0.80;99.90
5806;DHT22;2929;50.810;8.342;2023-04-06T00:22:53;-0.80;99.90
5806;DHT22;2929;50.810;8.342;2023-04-06T00:25:22;-0.90;99.90
5806;DHT22;2929;50.810;8.342;2023-04-06T00:27:49;-1.00;99.90
5806;DHT22;2929;50.810;8.342;2023-04-06T00:30:16;-1.00;99.90
5806;DHT22;2929;50.810;8.342;2023-04-06T00:32:43;-1.00;99.90
5806;DHT22;2929;50.810;8.342;2023-04-06T00:35:10;-1.00;99.90
5806;DHT22;2929;50.810;8.342;2023-04-06T00:37:37;-0.90;99.90
5806;DHT22;2929;50.810;8.342;2023-04-06T00:40:05;-0.80;99.90
5806;DHT22;2929;50.810;8.342;2023-04-06T00:42:34;-0.80;99.90
5806;DHT22;2929;50.810;8.342;2023-04-06T00:45:01;-0.80;99.90
5806;DHT22;2929;50.810;8.342;2023-04-06T00:47:28;-0.80;99.90
5806;DHT22;2929;50.810;8.342;2023-04-06T00:49:56;-0.80;99.90
5806;DHT22;2929;50.810;8.342;2023-04-06T00:52:23;-0.80;99.90
5806;DHT22;2929;50.810;8.342;2023-04-06T00:54:52;-0.90;99.90
5806;DHT22;2929;50.810;8.342;2023-04-06T00:57:20;-1.00;99.90
5806;DHT22;2929;50.810;8.342;2023-04-06T00:59:54;-1.10;99.90
5806;DHT22;2929;50.810;8.342;2023-04-06T01:02:23;-1.10;99.90
5806;DHT22;2929;50.810;8.342;2023-04-06T01:04:52;-1.20;99.90
5806;DHT22;2929;50.810;8.342;2023-04-06T01:07:48;-1.20;99.90
5806;DHT22;2929;50.810;8.342;2023-04-06T01:10:23;-1.20;99.90
5806;DHT22;2929;50.810;8.342;2023-04-06T01:12:55;-1.30;99.90
5806;DHT22;2929;50.810;8.342;2023-04-06T01:15:43;-1.40;99.90
5806;DHT22;2929;50.810;8.342;2023-04-06T01:18:15;-1.40;99.90
5806;DHT22;2929;50.810;8.342;2023-04-06T01:20:49;-1.50;99.90
5806;DHT22;2929;50.810;8.342;2023-04-06T01:23:18;-1.40;99.90
5806;DHT22;2929;50.810;8.342;2023-04-06T01:25:46;-1.40;99.90
5806;DHT22;2929;50.810;8.342;2023-04-06T01:28:13;-1.40;99.90
5806;DHT22;2929;50.810;8.342;2023-04-06T01:31:16;-1.40;99.90
5806;DHT22;2929;50.810;8.342;2023-04-06T01:33:46;-1.50;99.90
5806;DHT22;2929;50.810;8.342;2023-04-06T01:36:17;-1.40;99.90
5806;DHT22;2929;50.810;8.342;2023-04-06T01:38:49;-1.40;99.90
5806;DHT22;2929;50.810;8.342;2023-04-06T01:41:20;-1.50;99.90
5806;DHT22;2929;50.810;8.342;2023-04-06T01:43:50;-1.60;99.90
5806;DHT22;2929;50.810;8.342;2023-04-06T01:46:21;-1.60;99.90
5806;DHT22;2929;50.810;8.342;2023-04-06T01:48:48;-1.70;99.90
5806;DHT22;2929;50.810;8.342;2023-04-06T01:51:21;-1.50;99.90
5806;DHT22;2929;50.810;8.342;2023-04-06T01:53:56;-1.50;99.90
5806;DHT22;2929;50.810;8.342;2023-04-06T01:56:31;-1.50;99.90
5806;DHT22;2929;50.810;8.342;2023-04-06T01:59:06;-1.40;99.90
5806;DHT22;2929;50.810;8.342;2023-04-06T02:01:38;-1.40;99.90
5806;DHT22;2929;50.810;8.342;2023-04-06T02:04:06;-1.60;99.90
5806;DHT22;2929;50.810;8.342;2023-04-06T02:06:33;-1.70;99.90
5806;DHT22;2929;50.810;8.342;2023-04-06T02:09:03;-1.60;99.90
5806;DHT22;2929;50.810;8.342;2023-04-06T02:11:30;-1.60;99.90
5806;DHT22;2929;50.810;8.342;2023-04-06T02:13:57;-1.60;99.90
5806;DHT22;2929;50.810;8.342;2023-04-06T02:16:29;-1.60;99.90
5806;DHT22;2929;50.810;8.342;2023-04-06T02:18:56;-1.70;99.90
5806;DHT22;2929;50.810;8.342;2023-04-06T02:21:23;-1.80;99.90
5806;DHT22;2929;50.810;8.342;2023-04-06T02:23:50;-1.80;99.90
5806;DHT22;2929;50.810;8.342;2023-04-06T02:26:18;-1.90;99.90
5806;DHT22;2929;50.810;8.342;2023-04-06T02:28:46;-1.90;99.90
5806;DHT22;2929;50.810;8.342;2023-04-06T02:31:13;-1.90;99.90
5806;DHT22;2929;50.810;8.342;2023-04-06T02:33:42;-1.90;99.90
5806;DHT22;2929;50.810;8.342;2023-04-06T02:36:10;-2.00;99.90
5806;DHT22;2929;50.810;8.342;2023-04-06T02:38:37;-2.20;99.90
5806;DHT22;2929;50.810;8.342;2023-04-06T02:41:04;-2.20;99.90
5806;DHT22;2929;50.810;8.342;2023-04-06T02:43:32;-2.10;99.90
5806;DHT22;2929;50.810;8.342;2023-04-06T02:46:16;-2.20;99.90
5806;DHT22;2929;50.810;8.342;2023-04-06T02:48:43;-2.20;99.90
5806;DHT22;2929;50.810;8.342;2023-04-06T02:51:10;-2.20;99.90
5806;DHT22;2929;50.810;8.342;2023-04-06T02:53:38;-2.10;99.90
5806;DHT22;2929;50.810;8.342;2023-04-06T02:56:05;-2.00;99.90
5806;DHT22;2929;50.810;8.342;2023-04-06T02:58:45;-2.00;99.90
5806;DHT22;2929;50.810;8.342;2023-04-06T03:01:11;-2.00;99.90
5806;DHT22;2929;50.810;8.342;2023-04-06T03:03:40;-2.00;99.90
5806;DHT22;2929;50.810;8.342;2023-04-06T03:06:13;-2.10;99.90
5806;DHT22;2929;50.810;8.342;2023-04-06T03:08:40;-2.20;99.90
5806;DHT22;2929;50.810;8.342;2023-04-06T03:11:07;-2.30;99.90
5806;DHT22;2929;50.810;8.342;2023-04-06T03:13:38;-2.30;99.90
5806;DHT22;2929;50.810;8.342;2023-04-06T03:16:07;-2.40;99.90
5806;DHT22;2929;50.810;8.342;2023-04-06T03:18:34;-2.50;99.90
5806;DHT22;2929;50.810;8.342;2023-04-06T03:21:01;-2.50;99.90
5806;DHT22;2929;50.810;8.342;2023-04-06T03:23:42;-2.40;99.90
5806;DHT22;2929;50.810;8.342;2023-04-06T03:26:09;-2.40;99.90
5806;DHT22;2929;50.810;8.342;2023-04-06T03:28:36;-2.40;99.90
5806;DHT22;2929;50.810;8.342;2023-04-06T03:31:06;-2.40;99.90
5806;DHT22;2929;50.810;8.342;2023-04-06T03:33:43;-2.40;99.90
5806;DHT22;2929;50.810;8.342;2023-04-06T03:36:16;-2.40;99.90
5806;DHT22;2929;50.810;8.342;2023-04-06T03:38:43;-2.40;99.90
5806;DHT22;2929;50.810;8.342;2023-04-06T03:41:13;-2.50;99.90
5806;DHT22;2929;50.810;8.342;2023-04-06T03:43:44;-2.50;99.90
5806;DHT22;2929;50.810;8.342;2023-04-06T03:46:12;-2.50;99.90
5806;DHT22;2929;50.810;8.342;2023-04-06T03:48:40;-2.50;99.90
5806;DHT22;2929;50.810;8.342;2023-04-06T03:51:07;-2.50;99.90
5806;DHT22;2929;50.810;8.342;2023-04-06T03:53:33;-2.50;99.90
5806;DHT22;2929;50.810;8.342;2023-04-06T03:56:02;-2.40;99.90
5806;DHT22;2929;50.810;8.342;2023-04-06T03:58:29;-2.40;99.90
5806;DHT22;2929;50.810;8.342;2023-04-06T04:00:56;-2.30;99.90
5806;DHT22;2929;50.810;8.342;2023-04-06T04:03:24;-2.30;99.90
5806;DHT22;2929;50.810;8.342;2023-04-06T04:05:53;-2.30;99.90
5806;DHT22;2929;50.810;8.342;2023-04-06T04:08:21;-2.40;99.90
5806;DHT22;2929;50.810;8.342;2023-04-06T04:10:48;-2.40;99.90
5806;DHT22;2929;50.810;8.342;2023-04-06T04:13:15;-2.40;99.90
5806;DHT22;2929;50.810;8.342;2023-04-06T04:15:46;-2.50;99.90
5806;DHT22;2929;50.810;8.342;2023-04-06T04:18:14;-2.50;99.90
5806;DHT22;2929;50.810;8.342;2023-04-06T04:20:43;-2.40;99.90
5806;DHT22;2929;50.810;8.342;2023-04-06T04:23:11;-2.40;99.90
5806;DHT22;2929;50.810;8.342;2023-04-06T04:25:38;-2.40;99.90
5806;DHT22;2929;50.810;8.342;2023-04-06T04:28:06;-2.50;99.90
5806;DHT22;2929;50.810;8.342;2023-04-06T04:30:33;-2.60;99.90
5806;DHT22;2929;50.810;8.342;2023-04-06T04:33:00;-2.60;99.90
5806;DHT22;2929;50.810;8.342;2023-04-06T04:35:27;-2.70;99.90
5806;DHT22;2929;50.810;8.342;2023-04-06T04:37:57;-2.70;99.90
5806;DHT22;2929;50.810;8.342;2023-04-06T04:40:24;-2.80;99.90
5806;DHT22;2929;50.810;8.342;2023-04-06T04:42:59;-2.80;99.90
5806;DHT22;2929;50.810;8.342;2023-04-06T04:45:32;-2.90;99.90
5806;DHT22;2929;50.810;8.342;2023-04-06T04:48:08;-2.80;99.90
5806;DHT22;2929;50.810;8.342;2023-04-06T04:50:47;-2.90;99.90
5806;DHT22;2929;50.810;8.342;2023-04-06T04:53:17;-3.00;99.90
5806;DHT22;2929;50.810;8.342;2023-04-06T04:55:45;-3.00;99.90
5806;DHT22;2929;50.810;8.342;2023-04-06T04:58:13;-3.00;99.90
5806;DHT22;2929;50.810;8.342;2023-04-06T05:00:50;-2.90;99.90
5806;DHT22;2929;50.810;8.342;2023-04-06T05:03:21;-2.90;99.90
5806;DHT22;2929;50.810;8.342;2023-04-06T05:05:55;-2.80;99.90
5806;DHT22;2929;50.810;8.342;2023-04-06T05:08:27;-2.80;99.90
5806;DHT22;2929;50.810;8.342;2023-04-06T05:10:54;-2.80;99.90
5806;DHT22;2929;50.810;8.342;2023-04-06T05:13:21;-2.80;99.90
5806;DHT22;2929;50.810;8.342;2023-04-06T05:15:50;-2.90;99.90
5806;DHT22;2929;50.810;8.342;2023-04-06T05:18:27;-2.90;99.90
5806;DHT22;2929;50.810;8.342;2023-04-06T05:20:55;-2.90;99.90
5806;DHT22;2929;50.810;8.342;2023-04-06T05:23:32;-2.80;99.90
5806;DHT22;2929;50.810;8.342;2023-04-06T05:26:01;-2.70;99.90
5806;DHT22;2929;50.810;8.342;2023-04-06T05:28:28;-2.60;99.90
5806;DHT22;2929;50.810;8.342;2023-04-06T05:30:56;-2.50;99.90
5806;DHT22;2929;50.810;8.342;2023-04-06T05:33:24;-2.50;99.90
5806;DHT22;2929;50.810;8.342;2023-04-06T05:36:05;-2.60;99.90
5806;DHT22;2929;50.810;8.342;2023-04-06T05:38:36;-2.70;99.90
5806;DHT22;2929;50.810;8.342;2023-04-06T05:41:14;-2.80;99.90
5806;DHT22;2929;50.810;8.342;2023-04-06T05:43:42;-2.70;99.90
5806;DHT22;2929;50.810;8.342;2023-04-06T05:46:09;-2.70;99.90
5806;DHT22;2929;50.810;8.342;2023-04-06T05:48:36;-2.70;99.90
5806;DHT22;2929;50.810;8.342;2023-04-06T05:51:04;-2.60;99.90
5806;DHT22;2929;50.810;8.342;2023-04-06T05:53:41;-2.60;99.90
5806;DHT22;2929;50.810;8.342;2023-04-06T05:56:08;-2.50;99.90
5806;DHT22;2929;50.810;8.342;2023-04-06T05:58:35;-2.50;99.90
5806;DHT22;2929;50.810;8.342;2023-04-06T06:01:05;-2.50;99.90
5806;DHT22;2929;50.810;8.342;2023-04-06T06:03:41;-2.50;99.90
5806;DHT22;2929;50.810;8.342;2023-04-06T06:06:08;-2.40;99.90
5806;DHT22;2929;50.810;8.342;2023-04-06T06:08:47;-2.40;99.90
5806;DHT22;2929;50.810;8.342;2023-04-06T06:11:16;-2.30;99.90
5806;DHT22;2929;50.810;8.342;2023-04-06T06:13:43;-2.30;99.90
5806;DHT22;2929;50.810;8.342;2023-04-06T06:16:10;-2.20;99.90
5806;DHT22;2929;50.810;8.342;2023-04-06T06:18:43;-2.20;99.90
5806;DHT22;2929;50.810;8.342;2023-04-06T06:21:10;-2.10;99.90
5806;DHT22;2929;50.810;8.342;2023-04-06T06:23:38;-2.00;99.90
5806;DHT22;2929;50.810;8.342;2023-04-06T06:26:07;-1.90;99.90
5806;DHT22;2929;50.810;8.342;2023-04-06T06:28:34;-1.80;99.90
5806;DHT22;2929;50.810;8.342;2023-04-06T06:31:02;-1.70;99.90
5806;DHT22;2929;50.810;8.342;2023-04-06T06:33:29;-1.60;99.90
5806;DHT22;2929;50.810;8.342;2023-04-06T06:35:58;-1.50;99.90
5806;DHT22;2929;50.810;8.342;2023-04-06T06:38:25;-1.40;99.90
5806;DHT22;2929;50.810;8.342;2023-04-06T06:40:52;-1.40;99.90
5806;DHT22;2929;50.810;8.342;2023-04-06T06:43:21;-1.30;99.90
5806;DHT22;2929;50.810;8.342;2023-04-06T06:45:54;-1.20;99.90
5806;DHT22;2929;50.810;8.342;2023-04-06T06:48:21;-1.00;99.90
5806;DHT22;2929;50.810;8.342;2023-04-06T06:50:48;-0.90;99.90
5806;DHT22;2929;50.810;8.342;2023-04-06T06:53:15;-0.80;99.90
5806;DHT22;2929;50.810;8.342;2023-04-06T06:55:42;-0.70;99.90
5806;DHT22;2929;50.810;8.342;2023-04-06T06:58:10;-0.60;99.90
5806;DHT22;2929;50.810;8.342;2023-04-06T07:00:38;-0.60;99.90
5806;DHT22;2929;50.810;8.342;2023-04-06T07:03:06;-0.40;99.90
5806;DHT22;2929;50.810;8.342;2023-04-06T07:05:33;-0.30;99.90
5806;DHT22;2929;50.810;8.342;2023-04-06T07:08:00;-0.20;99.90
5806;DHT22;2929;50.810;8.342;2023-04-06T07:10:27;-0.20;99.90
5806;DHT22;2929;50.810;8.342;2023-04-06T07:12:54;0.00;99.90
5806;DHT22;2929;50.810;8.342;2023-04-06T07:15:22;0.10;99.90
5806;DHT22;2929;50.810;8.342;2023-04-06T07:17:52;0.20;99.90
5806;DHT22;2929;50.810;8.342;2023-04-06T07:20:20;0.30;99.90
5806;DHT22;2929;50.810;8.342;2023-04-06T07:22:47;0.40;99.90
5806;DHT22;2929;50.810;8.342;2023-04-06T07:25:15;0.60;99.90
5806;DHT22;2929;50.810;8.342;2023-04-06T07:27:42;0.70;99.90
5806;DHT22;2929;50.810;8.342;2023-04-06T07:30:11;0.80;99.90
5806;DHT22;2929;50.810;8.342;2023-04-06T07:32:38;0.90;99.90
5806;DHT22;2929;50.810;8.342;2023-04-06T07:35:07;1.00;99.90
5806;DHT22;2929;50.810;8.342;2023-04-06T07:37:34;1.00;99.90
5806;DHT22;2929;50.810;8.342;2023-04-06T07:40:01;1.10;99.90
5806;DHT22;2929;50.810;8.342;2023-04-06T07:42:29;1.20;99.90
5806;DHT22;2929;50.810;8.342;2023-04-06T07:44:56;1.30;99.90
5806;DHT22;2929;50.810;8.342;2023-04-06T07:47:24;1.50;99.90
5806;DHT22;2929;50.810;8.342;2023-04-06T07:49:51;1.50;99.90
5806;DHT22;2929;50.810;8.342;2023-04-06T07:52:20;1.60;99.90
5806;DHT22;2929;50.810;8.342;2023-04-06T07:54:47;1.60;99.90
5806;DHT22;2929;50.810;8.342;2023-04-06T07:57:15;1.60;99.90
5806;DHT22;2929;50.810;8.342;2023-04-06T07:59:42;1.90;99.90
5806;DHT22;2929;50.810;8.342;2023-04-06T08:02:09;2.00;99.90
5806;DHT22;2929;50.810;8.342;2023-04-06T08:04:36;2.20;99.90
5806;DHT22;2929;50.810;8.342;2023-04-06T08:07:03;2.30;99.90
5806;DHT22;2929;50.810;8.342;2023-04-06T08:09:32;2.50;99.90
5806;DHT22;2929;50.810;8.342;2023-04-06T08:11:59;2.50;99.90
5806;DHT22;2929;50.810;8.342;2023-04-06T08:14:27;2.60;99.90
5806;DHT22;2929;50.810;8.342;2023-04-06T08:16:57;2.70;99.90
5806;DHT22;2929;50.810;8.342;2023-04-06T08:19:24;3.00;99.90
5806;DHT22;2929;50.810;8.342;2023-04-06T08:21:51;3.10;99.90
5806;DHT22;2929;50.810;8.342;2023-04-06T08:24:18;3.20;99.90
5806;DHT22;2929;50.810;8.342;2023-04-06T08:26:46;3.40;99.90
5806;DHT22;2929;50.810;8.342;2023-04-06T08:29:13;3.40;99.90
5806;DHT22;2929;50.810;8.342;2023-04-06T08:31:41;3.60;99.90
5806;DHT22;2929;50.810;8.342;2023-04-06T08:34:08;4.20;99.90
5806;DHT22;2929;50.810;8.342;2023-04-06T08:36:36;4.50;99.90
5806;DHT22;2929;50.810;8.342;2023-04-06T08:39:03;4.80;99.90
5806;DHT22;2929;50.810;8.342;2023-04-06T08:41:30;5.00;99.90
5806;DHT22;2929;50.810;8.342;2023-04-06T08:44:01;5.20;99.90
5806;DHT22;2929;50.810;8.342;2023-04-06T08:46:29;5.40;99.90
5806;DHT22;2929;50.810;8.342;2023-04-06T08:48:57;5.50;99.90
5806;DHT22;2929;50.810;8.342;2023-04-06T08:51:26;5.60;99.90
5806;DHT22;2929;50.810;8.342;2023-04-06T08:53:53;5.70;99.90
5806;DHT22;2929;50.810;8.342;2023-04-06T08:56:21;5.70;99.90
5806;DHT22;2929;50.810;8.342;2023-04-06T08:58:50;5.80;99.90
5806;DHT22;2929;50.810;8.342;2023-04-06T09:01:22;6.00;99.90
5806;DHT22;2929;50.810;8.342;2023-04-06T09:03:51;6.20;99.90
5806;DHT22;2929;50.810;8.342;2023-04-06T09:06:22;6.10;99.90
5806;DHT22;2929;50.810;8.342;2023-04-06T09:08:49;6.40;99.90
5806;DHT22;2929;50.810;8.342;2023-04-06T09:11:16;6.40;99.90
5806;DHT22;2929;50.810;8.342;2023-04-06T09:13:49;6.50;99.90
5806;DHT22;2929;50.810;8.342;2023-04-06T09:16:18;6.70;99.90
5806;DHT22;2929;50.810;8.342;2023-04-06T09:18:46;6.70;99.90
5806;DHT22;2929;50.810;8.342;2023-04-06T09:21:16;6.90;99.90
5806;DHT22;2929;50.810;8.342;2023-04-06T09:23:44;7.00;99.90
5806;DHT22;2929;50.810;8.342;2023-04-06T09:26:12;7.10;99.90
5806;DHT22;2929;50.810;8.342;2023-04-06T09:28:44;7.20;99.90
5806;DHT22;2929;50.810;8.342;2023-04-06T09:31:13;7.40;99.90
5806;DHT22;2929;50.810;8.342;2023-04-06T09:33:43;7.50;99.90
5806;DHT22;2929;50.810;8.342;2023-04-06T09:36:10;7.50;99.90
5806;DHT22;2929;50.810;8.342;2023-04-06T09:38:52;7.50;99.80
5806;DHT22;2929;50.810;8.342;2023-04-06T09:41:24;7.70;99.90
5806;DHT22;2929;50.810;8.342;2023-04-06T09:43:52;7.80;99.90
5806;DHT22;2929;50.810;8.342;2023-04-06T09:46:21;7.80;99.60
5806;DHT22;2929;50.810;8.342;2023-04-06T09:48:51;7.80;99.90
5806;DHT22;2929;50.810;8.342;2023-04-06T09:51:19;8.00;99.90
5806;DHT22;2929;50.810;8.342;2023-04-06T09:53:51;8.00;99.90
5806;DHT22;2929;50.810;8.342;2023-04-06T09:56:23;8.10;99.40
5806;DHT22;2929;50.810;8.342;2023-04-06T09:58:55;8.10;99.80
5806;DHT22;2929;50.810;8.342;2023-04-06T10:01:27;8.30;98.90
5806;DHT22;2929;50.810;8.342;2023-04-06T10:04:05;8.50;97.80
5806;DHT22;2929;50.810;8.342;2023-04-06T10:06:36;8.70;98.30
5806;DHT22;2929;50.810;8.342;2023-04-06T10:09:05;8.90;99.90
5806;DHT22;2929;50.810;8.342;2023-04-06T10:11:34;9.00;98.00
5806;DHT22;2929;50.810;8.342;2023-04-06T10:14:01;9.30;98.80
5806;DHT22;2929;50.810;8.342;2023-04-06T10:16:30;9.30;97.70
5806;DHT22;2929;50.810;8.342;2023-04-06T10:19:05;9.40;98.90
5806;DHT22;2929;50.810;8.342;2023-04-06T10:21:35;9.50;98.00
5806;DHT22;2929;50.810;8.342;2023-04-06T10:24:07;9.70;97.80
5806;DHT22;2929;50.810;8.342;2023-04-06T10:26:38;9.90;97.30
5806;DHT22;2929;50.810;8.342;2023-04-06T10:29:07;9.80;99.20
5806;DHT22;2929;50.810;8.342;2023-04-06T10:31:40;9.80;97.70
5806;DHT22;2929;50.810;8.342;2023-04-06T10:34:10;9.90;96.80
5806;DHT22;2929;50.810;8.342;2023-04-06T10:36:38;10.00;96.20
5806;DHT22;2929;50.810;8.342;2023-04-06T10:39:06;10.10;95.50
5806;DHT22;2929;50.810;8.342;2023-04-06T10:41:33;10.50;96.20
5806;DHT22;2929;50.810;8.342;2023-04-06T10:44:00;10.40;96.70
5806;DHT22;2929;50.810;8.342;2023-04-06T10:46:29;10.70;97.40
5806;DHT22;2929;50.810;8.342;2023-04-06T10:48:57;10.70;94.30
5806;DHT22;2929;50.810;8.342;2023-04-06T10:51:29;10.80;95.50
5806;DHT22;2929;50.810;8.342;2023-04-06T10:53:57;10.80;95.00
5806;DHT22;2929;50.810;8.342;2023-04-06T10:56:25;10.80;93.90
5806;DHT22;2929;50.810;8.342;2023-04-06T10:58:54;11.20;93.50
5806;DHT22;2929;50.810;8.342;2023-04-06T11:01:23;11.30;94.40
5806;DHT22;2929;50.810;8.342;2023-04-06T11:03:53;11.30;92.60
5806;DHT22;2929;50.810;8.342;2023-04-06T11:06:22;11.50;92.50
5806;DHT22;2929;50.810;8.342;2023-04-06T11:08:53;12.00;92.90
5806;DHT22;2929;50.810;8.342;2023-04-06T11:11:22;12.10;90.50
5806;DHT22;2929;50.810;8.342;2023-04-06T11:13:51;12.20;91.30
5806;DHT22;2929;50.810;8.342;2023-04-06T11:16:20;12.40;90.90
5806;DHT22;2929;50.810;8.342;2023-04-06T11:18:52;11.70;88.50
5806;DHT22;2929;50.810;8.342;2023-04-06T11:21:33;11.40;91.50
5806;DHT22;2929;50.810;8.342;2023-04-06T11:24:08;11.10;90.70
5806;DHT22;2929;50.810;8.342;2023-04-06T11:26:41;11.20;92.10
5806;DHT22;2929;50.810;8.342;2023-04-06T11:29:09;11.40;91.00
5806;DHT22;2929;50.810;8.342;2023-04-06T11:31:41;11.30;89.00
5806;DHT22;2929;50.810;8.342;2023-04-06T11:34:12;11.30;87.60
5806;DHT22;2929;50.810;8.342;2023-04-06T11:36:41;11.30;90.60
5806;DHT22;2929;50.810;8.342;2023-04-06T11:39:10;11.50;90.40
5806;DHT22;2929;50.810;8.342;2023-04-06T11:41:37;11.90;90.50
5806;DHT22;2929;50.810;8.342;2023-04-06T11:44:05;11.80;89.50
5806;DHT22;2929;50.810;8.342;2023-04-06T11:46:33;11.90;90.50
5806;DHT22;2929;50.810;8.342;2023-04-06T11:49:01;12.10;88.00
5806;DHT22;2929;50.810;8.342;2023-04-06T11:51:29;12.00;90.20
5806;DHT22;2929;50.810;8.342;2023-04-06T11:53:56;11.90;87.00
5806;DHT22;2929;50.810;8.342;2023-04-06T11:56:26;11.90;87.90
5806;DHT22;2929;50.810;8.342;2023-04-06T11:58:55;12.20;87.30
5806;DHT22;2929;50.810;8.342;2023-04-06T12:01:22;12.00;86.90
5806;DHT22;2929;50.810;8.342;2023-04-06T12:03:50;12.10;86.30
5806;DHT22;2929;50.810;8.342;2023-04-06T12:06:18;12.10;87.50
5806;DHT22;2929;50.810;8.342;2023-04-06T12:08:45;11.90;87.50
5806;DHT22;2929;50.810;8.342;2023-04-06T12:11:12;11.90;87.50
5806;DHT22;2929;50.810;8.342;2023-04-06T12:13:44;11.90;89.30
5806;DHT22;2929;50.810;8.342;2023-04-06T12:16:15;12.00;86.60
5806;DHT22;2929;50.810;8.342;2023-04-06T12:18:43;12.50;85.40
5806;DHT22;2929;50.810;8.342;2023-04-06T12:21:10;12.70;85.50
5806;DHT22;2929;50.810;8.342;2023-04-06T12:23:37;13.10;84.40
5806;DHT22;2929;50.810;8.342;2023-04-06T12:26:04;13.00;84.60
5806;DHT22;2929;50.810;8.342;2023-04-06T12:28:31;13.00;85.60
5806;DHT22;2929;50.810;8.342;2023-04-06T12:31:00;13.10;84.30
5806;DHT22;2929;50.810;8.342;2023-04-06T12:33:27;13.10;84.20
5806;DHT22;2929;50.810;8.342;2023-04-06T12:35:54;13.10;86.00
5806;DHT22;2929;50.810;8.342;2023-04-06T12:38:24;12.80;84.80
5806;DHT22;2929;50.810;8.342;2023-04-06T12:40:52;12.50;85.70
5806;DHT22;2929;50.810;8.342;2023-04-06T12:43:19;12.80;85.70
5806;DHT22;2929;50.810;8.342;2023-04-06T12:45:46;13.00;86.50
5806;DHT22;2929;50.810;8.342;2023-04-06T12:48:14;13.00;85.20
5806;DHT22;2929;50.810;8.342;2023-04-06T12:50:41;13.40;84.40
5806;DHT22;2929;50.810;8.342;2023-04-06T12:53:09;13.30;81.40
5806;DHT22;2929;50.810;8.342;2023-04-06T12:55:36;13.30;81.70
5806;DHT22;2929;50.810;8.342;2023-04-06T12:58:03;13.30;84.70
5806;DHT22;2929;50.810;8.342;2023-04-06T13:00:30;12.90;83.90
5806;DHT22;2929;50.810;8.342;2023-04-06T13:02:58;12.70;83.30
5806;DHT22;2929;50.810;8.342;2023-04-06T13:05:26;13.00;85.00
5806;DHT22;2929;50.810;8.342;2023-04-06T13:07:53;13.30;87.80
5806;DHT22;2929;50.810;8.342;2023-04-06T13:10:21;13.40;84.10
5806;DHT22;2929;50.810;8.342;2023-04-06T13:12:48;13.10;83.70
5806;DHT22;2929;50.810;8.342;2023-04-06T13:15:15;13.20;83.10
5806;DHT22;2929;50.810;8.342;2023-04-06T13:17:42;13.40;82.70
5806;DHT22;2929;50.810;8.342;2023-04-06T13:20:10;13.30;82.20
5806;DHT22;2929;50.810;8.342;2023-04-06T13:22:38;13.40;82.80
5806;DHT22;2929;50.810;8.342;2023-04-06T13:25:06;13.40;82.90
5806;DHT22;2929;50.810;8.342;2023-04-06T13:27:33;13.20;84.30
5806;DHT22;2929;50.810;8.342;2023-04-06T13:30:01;12.80;82.50
5806;DHT22;2929;50.810;8.342;2023-04-06T13:32:29;12.90;83.30
5806;DHT22;2929;50.810;8.342;2023-04-06T13:34:57;13.20;83.90
5806;DHT22;2929;50.810;8.342;2023-04-06T13:37:24;13.30;84.20
5806;DHT22;2929;50.810;8.342;2023-04-06T13:39:52;13.30;84.30
5806;DHT22;2929;50.810;8.342;2023-04-06T13:42:20;13.50;82.00
5806;DHT22;2929;50.810;8.342;2023-04-06T13:44:47;13.20;84.30
5806;DHT22;2929;50.810;8.342;2023-04-06T13:47:16;13.10;82.10
5806;DHT22;2929;50.810;8.342;2023-04-06T13:49:43;12.80;83.70
5806;DHT22;2929;50.810;8.342;2023-04-06T13:52:11;12.80;82.80
5806;DHT22;2929;50.810;8.342;2023-04-06T13:54:38;12.90;84.20
5806;DHT22;2929;50.810;8.342;2023-04-06T13:57:06;13.20;82.80
5806;DHT22;2929;50.810;8.342;2023-04-06T13:59:34;12.80;81.50
5806;DHT22;2929;50.810;8.342;2023-04-06T14:02:02;12.70;82.70
5806;DHT22;2929;50.810;8.342;2023-04-06T14:04:29;12.60;84.80
5806;DHT22;2929;50.810;8.342;2023-04-06T14:06:56;12.50;84.10
5806;DHT22;2929;50.810;8.342;2023-04-06T14:09:23;12.20;83.60
5806;DHT22;2929;50.810;8.342;2023-04-06T14:11:51;12.20;85.30
5806;DHT22;2929;50.810;8.342;2023-04-06T14:14:20;12.30;88.80
5806;DHT22;2929;50.810;8.342;2023-04-06T14:16:47;12.50;90.40
5806;DHT22;2929;50.810;8.342;2023-04-06T14:19:16;12.60;85.70
5806;DHT22;2929;50.810;8.342;2023-04-06T14:21:44;12.50;86.80
5806;DHT22;2929;50.810;8.342;2023-04-06T14:24:11;12.40;88.30
5806;DHT22;2929;50.810;8.342;2023-04-06T14:26:40;12.20;87.40
5806;DHT22;2929;50.810;8.342;2023-04-06T14:29:08;12.20;85.70
5806;DHT22;2929;50.810;8.342;2023-04-06T14:31:37;12.00;86.60
5806;DHT22;2929;50.810;8.342;2023-04-06T14:34:04;11.90;86.20
5806;DHT22;2929;50.810;8.342;2023-04-06T14:36:32;11.90;87.10
5806;DHT22;2929;50.810;8.342;2023-04-06T14:39:02;11.90;86.60
5806;DHT22;2929;50.810;8.342;2023-04-06T14:41:30;11.70;86.40
5806;DHT22;2929;50.810;8.342;2023-04-06T14:43:58;11.80;87.80
5806;DHT22;2929;50.810;8.342;2023-04-06T14:46:25;11.80;88.00
5806;DHT22;2929;50.810;8.342;2023-04-06T14:48:55;11.90;89.70
5806;DHT22;2929;50.810;8.342;2023-04-06T14:51:24;11.90;88.90
5806;DHT22;2929;50.810;8.342;2023-04-06T14:53:53;11.80;88.60
5806;DHT22;2929;50.810;8.342;2023-04-06T14:56:20;11.70;88.10
5806;DHT22;2929;50.810;8.342;2023-04-06T14:58:48;11.60;89.20
5806;DHT22;2929;50.810;8.342;2023-04-06T15:01:16;11.60;89.90
5806;DHT22;2929;50.810;8.342;2023-04-06T15:03:43;11.40;90.00
5806;DHT22;2929;50.810;8.342;2023-04-06T15:06:15;11.40;90.60
5806;DHT22;2929;50.810;8.342;2023-04-06T15:08:42;11.30;90.20
5806;DHT22;2929;50.810;8.342;2023-04-06T15:11:10;11.30;90.30
5806;DHT22;2929;50.810;8.342;2023-04-06T15:13:38;11.30;90.60
5806;DHT22;2929;50.810;8.342;2023-04-06T15:16:06;11.20;90.90
5806;DHT22;2929;50.810;8.342;2023-04-06T15:18:33;11.20;90.80
5806;DHT22;2929;50.810;8.342;2023-04-06T15:21:01;11.20;91.80
5806;DHT22;2929;50.810;8.342;2023-04-06T15:23:29;11.30;93.30
5806;DHT22;2929;50.810;8.342;2023-04-06T15:25:57;11.30;91.70
5806;DHT22;2929;50.810;8.342;2023-04-06T15:28:24;11.20;90.60
5806;DHT22;2929;50.810;8.342;2023-04-06T15:30:54;11.20;91.40
5806;DHT22;2929;50.810;8.342;2023-04-06T15:33:21;11.10;91.90
5806;DHT22;2929;50.810;8.342;2023-04-06T15:35:48;10.90;91.60
5806;DHT22;2929;50.810;8.342;2023-04-06T15:38:16;11.00;91.40
5806;DHT22;2929;50.810;8.342;2023-04-06T15:40:47;10.90;92.10
5806;DHT22;2929;50.810;8.342;2023-04-06T15:43:15;10.90;91.60
5806;DHT22;2929;50.810;8.342;2023-04-06T15:45:43;11.00;92.20
5806;DHT22;2929;50.810;8.342;2023-04-06T15:48:10;11.00;93.10
5806;DHT22;2929;50.810;8.342;2023-04-06T15:50:37;10.90;92.30
5806;DHT22;2929;50.810;8.342;2023-04-06T15:53:04;10.90;92.60
5806;DHT22;2929;50.810;8.342;2023-04-06T15:55:31;10.80;93.40
5806;DHT22;2929;50.810;8.342;2023-04-06T15:58:00;10.70;93.10
5806;DHT22;2929;50.810;8.342;2023-04-06T16:00:28;10.70;92.40
5806;DHT22;2929;50.810;8.342;2023-04-06T16:02:55;10.60;92.30
5806;DHT22;2929;50.810;8.342;2023-04-06T16:05:22;10.60;93.70
5806;DHT22;2929;50.810;8.342;2023-04-06T16:07:49;10.60;92.80
5806;DHT22;2929;50.810;8.342;2023-04-06T16:10:16;10.50;93.50
5806;DHT22;2929;50.810;8.342;2023-04-06T16:12:43;10.50;93.10
5806;DHT22;2929;50.810;8.342;2023-04-06T16:15:12;10.40;93.20